Vassar, Michigan
Current Conditions -  °F | °C
As of 2:55 AM on Saturday 25 Oct 2014 (Local Time) from KCFS Reporting Station
Moderate Fog Moderate Fog  
Wind Chill: 41°   Ceiling: 200
Heat Index: 41°   Visibility: 0.25mi
Dew Point: 40°   Wind: 0mph
Humidity: 97%   Direction: NA
Pressure: 29.87"   Gusts: NA
Location:  43.37°N, 83.58°W
Report Text: KCFS 250655Z AUTO 00000KT 1/4SM FG VV002 05/04 A2987 RMK AO2 T00480044
Loading
Personal Weather Stations






























Interactive Weather Map
Tropical Storm Tracking
New forecast layout! Learn more

10-Day Weather Forecast

Advertisements
Track Severe Weather on mobile